Time;durP1;ratioP1;P1;durP2;ratioP2;P2;SDS_P1;SDS_P2;PMS_P1;PMS_P2;Temp;Humidity;BMP_temperature;BMP_pressure;BME280_temperature;BME280_humidity;BME280_pressure;Samples;Min_cycle;Max_cycle;Signal;HPM_P1;HPM_P2
2023/04/10 00:00:20;;;;;;;0.10;0.10;;;;;;;12.70;70.40;99941.88;7348596;19;20014;-60
2023/04/10 00:02:47;;;;;;;0.00;0.00;;;;;;;12.70;70.04;99936.63;7353918;19;20006;-60
2023/04/10 00:05:12;;;;;;;0.00;0.00;;;;;;;12.70;70.34;99936.63;7354973;19;20675;-61
2023/04/10 00:07:37;;;;;;;0.00;0.00;;;;;;;12.67;71.01;99942.03;7350377;19;20015;-60
2023/04/10 00:10:03;;;;;;;0.00;0.00;;;;;;;12.64;70.98;99936.91;7355313;19;20011;-60
2023/04/10 00:12:29;;;;;;;0.00;0.00;;;;;;;12.60;70.31;99940.56;7353703;19;20022;-60
2023/04/10 00:14:54;;;;;;;0.10;0.10;;;;;;;12.60;71.24;99945.81;7353823;19;20034;-60
2023/04/10 00:17:20;;;;;;;0.00;0.00;;;;;;;12.41;71.17;99918.72;7351626;19;20022;-60
2023/04/10 00:19:45;;;;;;;0.00;0.00;;;;;;;12.55;71.17;99952.16;7352874;19;20479;-60
2023/04/10 00:22:11;;;;;;;0.00;0.00;;;;;;;12.51;71.58;99956.69;7353806;19;20990;-60
2023/04/10 00:24:36;;;;;;;0.05;0.05;;;;;;;12.51;70.07;99959.28;7354229;19;20021;-60
2023/04/10 00:27:01;;;;;;;0.10;0.10;;;;;;;12.49;70.85;99958.53;7352001;19;20015;-60
2023/04/10 00:29:27;;;;;;;0.00;0.00;;;;;;;12.46;70.22;99953.41;7350052;19;20066;-60
2023/04/10 00:31:52;;;;;;;0.00;0.00;;;;;;;12.41;70.48;99945.75;7356200;19;20035;-60
2023/04/10 00:34:18;;;;;;;0.00;0.00;;;;;;;12.40;70.56;99948.44;7353610;19;20024;-60
2023/04/10 00:36:45;;;;;;;0.00;0.00;;;;;;;12.23;70.55;99928.22;7352608;19;20106;-60
2023/04/10 00:39:11;;;;;;;0.00;0.00;;;;;;;12.35;69.56;99947.78;7353786;19;20025;-60
2023/04/10 00:41:37;;;;;;;0.00;0.00;;;;;;;12.26;70.15;99932.44;7349914;19;20046;-60
2023/04/10 00:44:02;;;;;;;0.00;0.00;;;;;;;12.29;69.30;99946.25;7352619;19;20010;-60
2023/04/10 00:46:29;;;;;;;0.00;0.00;;;;;;;12.26;69.42;99942.91;7351876;19;20106;-61
2023/04/10 00:48:56;;;;;;;0.00;0.00;;;;;;;12.18;69.63;99938.03;7351961;19;20014;-60
2023/04/10 00:51:21;;;;;;;0.10;0.10;;;;;;;12.04;69.52;99922.03;7353590;19;20119;-61
2023/04/10 00:53:51;;;;;;;0.00;0.00;;;;;;;12.15;70.24;99938.97;7352743;19;20657;-60
2023/04/10 00:56:17;;;;;;;0.00;0.00;;;;;;;12.08;70.31;99937.53;7351459;19;20070;-60
2023/04/10 00:58:43;;;;;;;0.00;0.00;;;;;;;12.07;70.66;99928.00;7350922;19;21337;-60
2023/04/10 01:01:08;;;;;;;0.00;0.00;;;;;;;12.05;69.81;99927.19;7354550;19;20011;-60
2023/04/10 01:03:34;;;;;;;0.00;0.00;;;;;;;12.02;71.07;99924.72;7350767;19;20712;-60
2023/04/10 01:06:29;;;;;;;0.00;0.00;;;;;;;12.03;70.32;99918.56;7349162;19;20038;-60
2023/04/10 01:09:19;;;;;;;0.00;0.00;;;;;;;12.02;69.42;99919.47;7249244;19;2004536;-61
2023/04/10 01:12:06;;;;;;;0.10;0.10;;;;;;;12.00;69.77;99912.59;7256836;19;2004575;-60
2023/04/10 01:14:41;;;;;;;0.10;0.10;;;;;;;11.97;70.13;99913.59;7356962;19;20041;-60
2023/04/10 01:17:12;;;;;;;0.10;0.10;;;;;;;11.84;70.67;99907.13;7358600;19;20026;-60
2023/04/10 01:20:22;;;;;;;0.08;0.08;;;;;;;11.94;69.98;99916.31;7352373;19;20014;-61
2023/04/10 01:23:09;;;;;;;0.00;0.00;;;;;;;11.93;69.63;99906.78;7247912;19;2004254;-61
2023/04/10 01:25:47;;;;;;;0.00;0.00;;;;;;;11.89;70.05;99905.19;7360592;19;20010;-60
2023/04/10 01:28:39;;;;;;;0.00;0.00;;;;;;;11.89;70.09;99902.56;7355829;19;20026;-60
2023/04/10 01:31:07;;;;;;;0.03;0.03;;;;;;;11.74;70.21;99882.22;7258370;19;2004707;-60
2023/04/10 01:33:41;;;;;;;0.00;0.00;;;;;;;11.82;70.40;99894.13;7356823;19;20717;-60
2023/04/10 01:36:09;;;;;;;0.10;0.10;;;;;;;11.80;70.56;99900.28;7359670;19;20017;-60
2023/04/10 01:38:42;;;;;;;0.10;0.10;;;;;;;11.66;69.91;99878.19;7357977;19;20033;-61
2023/04/10 01:41:07;;;;;;;0.00;0.00;;;;;;;11.76;69.88;99909.16;7359084;19;20019;-61
2023/04/10 01:43:33;;;;;;;0.08;0.08;;;;;;;11.74;70.23;99905.78;7354813;19;20073;-61
2023/04/10 01:46:01;;;;;;;0.03;0.03;;;;;;;11.72;69.98;99890.16;7360402;19;20014;-61
2023/04/10 01:48:28;;;;;;;0.00;0.00;;;;;;;11.67;70.94;99887.72;7356357;19;20010;-61
2023/04/10 01:50:54;;;;;;;0.10;0.10;;;;;;;11.60;70.57;99883.63;7357993;19;20010;-60
2023/04/10 01:53:22;;;;;;;0.10;0.10;;;;;;;11.64;70.35;99890.44;7355709;19;20017;-60
2023/04/10 01:55:48;;;;;;;0.00;0.00;;;;;;;11.68;70.83;99897.25;7357873;19;20036;-61
2023/04/10 01:58:14;;;;;;;0.10;0.10;;;;;;;11.67;71.06;99879.88;7349563;19;20006;-61
2023/04/10 02:00:41;;;;;;;0.00;0.00;;;;;;;11.69;70.38;99879.81;7356281;19;20017;-61
2023/04/10 02:03:07;;;;;;;0.00;0.00;;;;;;;11.68;70.27;99875.50;7353858;19;20015;-61
2023/04/10 02:06:01;;;;;;;0.00;0.00;;;;;;;11.68;69.36;99873.72;7356403;19;20689;-61
2023/04/10 02:08:41;;;;;;;0.05;0.05;;;;;;;11.57;69.47;99856.78;7252068;19;2004759;-61
2023/04/10 02:11:23;;;;;;;0.00;0.00;;;;;;;11.68;68.67;99876.34;7354702;19;20667;-61
2023/04/10 02:13:52;;;;;;;0.00;0.00;;;;;;;11.66;69.63;99880.78;7356844;19;20007;-61
2023/04/10 02:16:20;;;;;;;0.00;0.00;;;;;;;11.66;70.45;99877.34;7349244;19;20703;-61
2023/04/10 02:18:48;;;;;;;0.00;0.00;;;;;;;11.52;69.88;99846.50;7352665;19;20141;-61
2023/04/10 02:21:14;;;;;;;0.10;0.10;;;;;;;11.65;70.05;99871.22;7353432;19;20006;-61
2023/04/10 02:23:39;;;;;;;0.00;0.00;;;;;;;11.66;68.37;99867.72;7352710;19;21422;-61
2023/04/10 02:26:08;;;;;;;0.10;0.10;;;;;;;11.66;69.28;99865.09;7354146;19;20014;-61
2023/04/10 02:28:36;;;;;;;0.00;0.00;;;;;;;11.64;69.11;99861.69;7355149;19;20023;-61
2023/04/10 02:31:01;;;;;;;0.00;0.00;;;;;;;11.65;68.69;99854.69;7354619;19;20101;-61
2023/04/10 02:33:27;;;;;;;0.00;0.00;;;;;;;11.64;68.87;99863.44;7352585;19;20041;-61
2023/04/10 02:35:52;;;;;;;0.00;0.00;;;;;;;11.64;68.95;99861.69;7354621;19;20015;-61
2023/04/10 02:38:17;;;;;;;0.00;0.00;;;;;;;11.62;68.96;99860.91;7353143;19;20010;-61
2023/04/10 02:40:43;;;;;;;0.00;0.00;;;;;;;11.62;69.48;99867.91;7356825;19;20030;-61
2023/04/10 02:43:08;;;;;;;0.08;0.08;;;;;;;11.63;68.38;99857.38;7347122;19;20025;-61
2023/04/10 02:45:34;;;;;;;0.03;0.03;;;;;;;11.64;69.19;99868.69;7356832;19;20115;-61
2023/04/10 02:47:59;;;;;;;0.00;0.00;;;;;;;11.66;68.49;99862.50;7355234;19;20007;-61
2023/04/10 02:50:28;;;;;;;0.08;0.08;;;;;;;11.66;68.93;99861.63;7354971;19;20012;-61
2023/04/10 02:52:54;;;;;;;0.00;0.00;;;;;;;11.67;68.74;99858.94;7350002;19;20259;-61
2023/04/10 02:55:19;;;;;;;0.05;0.05;;;;;;;11.66;68.69;99856.41;7351788;19;23357;-61
2023/04/10 02:57:45;;;;;;;0.00;0.00;;;;;;;11.64;68.95;99851.22;7352373;19;20028;-61
2023/04/10 03:00:11;;;;;;;0.00;0.00;;;;;;;11.68;69.01;99860.66;7352722;19;20027;-62
2023/04/10 03:02:36;;;;;;;0.10;0.10;;;;;;;11.69;68.60;99854.50;7342148;19;20054;-61
2023/04/10 03:05:02;;;;;;;0.00;0.00;;;;;;;11.68;69.24;99855.41;7340798;19;20007;-61
2023/04/10 03:07:27;;;;;;;0.00;0.00;;;;;;;11.68;68.76;99850.19;7352797;19;20017;-61
2023/04/10 03:09:53;;;;;;;0.00;0.00;;;;;;;11.65;68.96;99849.44;7353405;19;20014;-61
2023/04/10 03:12:19;;;;;;;0.00;0.00;;;;;;;11.68;69.29;99860.66;7353371;19;20022;-61
2023/04/10 03:14:44;;;;;;;0.00;0.00;;;;;;;11.69;69.12;99862.34;7351476;19;20018;-61
2023/04/10 03:17:11;;;;;;;0.00;0.00;;;;;;;11.69;68.64;99857.13;7356053;19;20010;-61
2023/04/10 03:19:36;;;;;;;0.00;0.00;;;;;;;11.70;68.78;99865.81;7338217;19;20006;-61
2023/04/10 03:22:02;;;;;;;0.00;0.00;;;;;;;11.69;68.56;99864.97;7355677;19;20006;-61
2023/04/10 03:24:27;;;;;;;0.10;0.10;;;;;;;11.67;69.16;99847.66;7350690;19;20498;-61
2023/04/10 03:26:53;;;;;;;0.00;0.00;;;;;;;11.63;68.79;99841.69;7355718;19;20042;-61
2023/04/10 03:29:19;;;;;;;0.00;0.00;;;;;;;11.68;69.30;99841.50;7355106;19;20011;-61
2023/04/10 03:31:44;;;;;;;0.00;0.00;;;;;;;11.68;69.14;99844.09;7351323;19;20017;-61
2023/04/10 03:34:10;;;;;;;0.00;0.00;;;;;;;11.63;68.54;99838.22;7353838;19;20014;-61
2023/04/10 03:36:35;;;;;;;0.10;0.10;;;;;;;11.63;69.36;99843.44;7354824;19;20014;-61
2023/04/10 03:39:01;;;;;;;0.10;0.10;;;;;;;11.60;69.06;99840.94;7354683;19;20478;-61
2023/04/10 03:41:26;;;;;;;0.00;0.00;;;;;;;11.57;69.41;99841.94;7350778;19;20014;-61
2023/04/10 03:43:52;;;;;;;0.00;0.00;;;;;;;11.54;68.74;99844.66;7355338;19;20026;-61
2023/04/10 03:46:17;;;;;;;0.08;0.08;;;;;;;11.51;68.46;99836.13;7353883;19;20018;-61
2023/04/10 03:48:42;;;;;;;0.08;0.08;;;;;;;11.49;69.29;99844.00;7347537;19;20476;-61
2023/04/10 03:51:08;;;;;;;0.00;0.00;;;;;;;11.47;69.75;99840.59;7349739;19;20026;-61
2023/04/10 03:53:34;;;;;;;0.10;0.10;;;;;;;11.44;69.50;99836.34;7352934;19;20698;-61
2023/04/10 03:56:01;;;;;;;0.00;0.00;;;;;;;11.45;69.28;99834.56;7350938;19;20530;-62
2023/04/10 03:58:27;;;;;;;0.10;0.10;;;;;;;11.46;69.11;99838.06;7356362;19;20018;-61
2023/04/10 04:00:53;;;;;;;0.10;0.10;;;;;;;11.08;68.50;99770.69;7354345;19;20476;-61
2023/04/10 04:03:18;;;;;;;0.10;0.10;;;;;;;11.44;68.78;99831.09;7353803;19;20044;-61
2023/04/10 04:05:43;;;;;;;0.00;0.00;;;;;;;11.43;68.70;99844.25;7354299;19;20041;-61
2023/04/10 04:08:09;;;;;;;0.00;0.00;;;;;;;11.32;68.26;99815.91;7356165;19;20530;-62
2023/04/10 04:10:34;;;;;;;0.00;0.00;;;;;;;11.37;68.62;99823.59;7355948;19;20416;-61
2023/04/10 04:13:00;;;;;;;0.10;0.10;;;;;;;11.31;68.98;99805.53;7350911;19;20015;-61
2023/04/10 04:15:25;;;;;;;0.00;0.00;;;;;;;11.30;68.94;99809.88;7354902;19;20015;-61
2023/04/10 04:17:50;;;;;;;0.05;0.05;;;;;;;11.27;68.95;99806.56;7353148;19;20010;-61
2023/04/10 04:20:16;;;;;;;0.10;0.10;;;;;;;11.22;68.89;99813.75;7355555;19;20699;-61
2023/04/10 04:22:41;;;;;;;0.00;0.00;;;;;;;11.18;69.15;99807.78;7352334;19;20031;-62
2023/04/10 04:25:10;;;;;;;0.10;0.10;;;;;;;11.13;69.05;99810.56;7351688;19;20475;-61
2023/04/10 04:27:35;;;;;;;0.00;0.00;;;;;;;11.04;68.79;99797.00;7352685;19;20007;-61
2023/04/10 04:30:05;;;;;;;0.00;0.00;;;;;;;10.93;69.08;99793.97;7351729;19;20595;-61
2023/04/10 04:32:30;;;;;;;0.05;0.05;;;;;;;11.00;69.62;99809.34;7352368;19;20014;-61
2023/04/10 04:34:56;;;;;;;0.00;0.00;;;;;;;10.91;68.98;99799.25;7353768;19;20742;-61
2023/04/10 04:37:21;;;;;;;0.00;0.00;;;;;;;10.92;68.39;99803.56;7353038;19;20751;-61
2023/04/10 04:39:46;;;;;;;0.00;0.00;;;;;;;10.89;69.10;99803.66;7352794;19;20007;-61
2023/04/10 04:42:12;;;;;;;0.00;0.00;;;;;;;10.86;68.51;99811.63;7355291;19;20010;-62
2023/04/10 04:44:37;;;;;;;0.00;0.00;;;;;;;10.70;68.79;99793.09;7350918;19;20476;-61
2023/04/10 04:47:02;;;;;;;0.08;0.08;;;;;;;10.78;69.46;99808.47;7358579;19;20014;-61
2023/04/10 04:49:28;;;;;;;0.10;0.10;;;;;;;10.75;69.03;99805.97;7357585;19;20014;-62
2023/04/10 04:51:53;;;;;;;0.03;0.03;;;;;;;10.32;68.89;99739.69;7360967;19;20502;-61
2023/04/10 04:54:19;;;;;;;0.00;0.00;;;;;;;10.53;69.31;99772.81;7358344;19;20010;-61
2023/04/10 04:56:44;;;;;;;0.03;0.03;;;;;;;10.63;69.84;99792.44;7359523;19;20103;-61
2023/04/10 04:59:09;;;;;;;0.10;0.10;;;;;;;10.62;69.63;99798.59;7359216;19;20010;-62
2023/04/10 05:01:35;;;;;;;0.00;0.00;;;;;;;10.59;69.27;99798.72;7359038;19;20010;-61
2023/04/10 05:04:00;;;;;;;0.00;0.00;;;;;;;10.51;69.35;99790.31;7358771;19;20758;-61
2023/04/10 05:06:26;;;;;;;0.00;0.00;;;;;;;10.53;69.32;99796.31;7358897;19;20464;-62
2023/04/10 05:08:51;;;;;;;0.10;0.10;;;;;;;10.50;69.70;99796.44;7357114;19;20009;-61
2023/04/10 05:11:17;;;;;;;0.10;0.10;;;;;;;10.48;70.20;99800.00;7358091;19;20017;-61
2023/04/10 05:13:43;;;;;;;0.00;0.00;;;;;;;10.46;70.17;99807.91;7358431;19;20019;-61
2023/04/10 05:16:08;;;;;;;0.00;0.00;;;;;;;10.43;69.46;99805.38;7357199;19;20033;-61
2023/04/10 05:18:34;;;;;;;0.00;0.00;;;;;;;10.41;69.81;99794.16;7360029;19;20014;-61
2023/04/10 05:21:00;;;;;;;0.00;0.00;;;;;;;10.18;69.83;99757.56;7357643;19;20014;-61
2023/04/10 05:23:26;;;;;;;0.00;0.00;;;;;;;10.27;69.81;99780.75;7359658;19;20647;-61
2023/04/10 05:25:51;;;;;;;0.00;0.00;;;;;;;10.18;68.89;99754.97;7358351;19;20021;-61
2023/04/10 05:28:17;;;;;;;0.00;0.00;;;;;;;10.33;69.85;99786.59;7357930;19;20002;-61
2023/04/10 05:30:42;;;;;;;0.00;0.00;;;;;;;10.30;69.13;99770.22;7355419;19;20007;-61
2023/04/10 05:33:07;;;;;;;0.00;0.00;;;;;;;10.28;69.85;99766.81;7354667;19;20018;-61
2023/04/10 05:35:33;;;;;;;0.00;0.00;;;;;;;10.27;69.33;99781.59;7360296;19;20014;-61
2023/04/10 05:37:59;;;;;;;0.00;0.00;;;;;;;10.19;69.32;99773.19;7358952;19;20048;-61
2023/04/10 05:40:25;;;;;;;0.03;0.03;;;;;;;10.24;69.68;99784.34;7357284;19;20018;-61
2023/04/10 05:42:51;;;;;;;0.00;0.00;;;;;;;10.14;70.03;99770.75;7356371;19;20030;-61
2023/04/10 05:45:17;;;;;;;0.00;0.00;;;;;;;10.20;69.69;99776.66;7357078;19;20911;-61
2023/04/10 05:47:43;;;;;;;0.00;0.00;;;;;;;10.11;69.72;99763.00;7357731;19;20360;-62
2023/04/10 05:50:09;;;;;;;0.00;0.00;;;;;;;10.25;70.00;99777.38;7357867;19;20018;-61
2023/04/10 05:52:34;;;;;;;0.00;0.00;;;;;;;10.27;69.75;99770.31;7358508;19;20153;-61
2023/04/10 05:55:00;;;;;;;0.10;0.10;;;;;;;10.29;69.82;99784.16;7356833;19;20070;-62
2023/04/10 05:57:25;;;;;;;0.00;0.00;;;;;;;10.32;68.93;99781.44;7358016;19;20031;-62
2023/04/10 05:59:51;;;;;;;0.00;0.00;;;;;;;10.34;69.90;99782.22;7344089;19;20478;-61
2023/04/10 06:02:17;;;;;;;0.00;0.00;;;;;;;10.38;69.13;99783.81;7354184;19;20274;-62
2023/04/10 06:04:43;;;;;;;0.08;0.08;;;;;;;10.40;69.70;99779.41;7354921;19;20014;-61
2023/04/10 06:07:08;;;;;;;0.00;0.00;;;;;;;10.43;69.38;99781.06;7353688;19;20018;-61
2023/04/10 06:09:34;;;;;;;0.00;0.00;;;;;;;10.44;69.17;99778.41;7353420;19;20750;-61
2023/04/10 06:12:00;;;;;;;0.10;0.10;;;;;;;10.50;69.38;99787.75;7355093;19;20017;-62
2023/04/10 06:14:25;;;;;;;0.00;0.00;;;;;;;10.53;69.20;99783.25;7351969;19;20007;-62
2023/04/10 06:16:51;;;;;;;0.00;0.00;;;;;;;10.56;69.46;99788.38;7356841;19;20022;-61
2023/04/10 06:19:16;;;;;;;0.03;0.03;;;;;;;10.62;69.71;99790.75;7355095;19;20014;-61
2023/04/10 06:21:42;;;;;;;0.00;0.00;;;;;;;10.67;69.65;99784.50;7356216;19;20014;-62
2023/04/10 06:24:07;;;;;;;0.10;0.10;;;;;;;10.72;69.35;99779.97;7349461;19;20034;-61
2023/04/10 06:26:32;;;;;;;0.03;0.03;;;;;;;10.75;69.16;99788.53;7353058;19;20746;-61
2023/04/10 06:28:58;;;;;;;0.00;0.00;;;;;;;10.79;69.34;99784.03;7352587;19;20022;-61
2023/04/10 06:31:24;;;;;;;0.10;0.10;;;;;;;10.78;68.91;99775.34;7349667;19;20016;-62
2023/04/10 06:33:49;;;;;;;0.10;0.10;;;;;;;10.84;69.04;99787.31;7352529;19;20011;-61
2023/04/10 06:36:15;;;;;;;0.00;0.00;;;;;;;10.93;68.79;99791.34;7354361;19;20013;-62
2023/04/10 06:38:41;;;;;;;0.00;0.00;;;;;;;10.95;68.89;99793.00;7354630;19;20047;-61
2023/04/10 06:41:06;;;;;;;0.10;0.10;;;;;;;10.90;68.34;99781.88;7349062;19;20039;-61
2023/04/10 06:43:36;;;;;;;0.10;0.10;;;;;;;11.02;68.74;99799.69;7350563;19;20003;-61
2023/04/10 06:46:05;;;;;;;0.00;0.00;;;;;;;11.06;68.05;99795.19;7354426;19;20010;-61
2023/04/10 06:48:32;;;;;;;0.00;0.00;;;;;;;11.05;68.40;99791.75;7350334;19;20055;-62
2023/04/10 06:50:59;;;;;;;0.00;0.00;;;;;;;11.06;67.95;99790.81;7353031;19;20434;-61
2023/04/10 06:53:25;;;;;;;0.10;0.10;;;;;;;11.08;68.15;99790.75;7354158;19;20010;-62
2023/04/10 06:55:51;;;;;;;0.00;0.00;;;;;;;10.95;67.93;99769.50;7354847;19;20014;-62
2023/04/10 06:58:16;;;;;;;0.10;0.10;;;;;;;11.04;68.66;99803.06;7353212;19;20029;-61
2023/04/10 07:00:42;;;;;;;0.00;0.00;;;;;;;11.01;67.62;99795.38;7355279;19;20607;-61
2023/04/10 07:03:07;;;;;;;0.00;0.00;;;;;;;11.03;67.53;99795.31;7352061;19;20021;-61
2023/04/10 07:05:33;;;;;;;0.00;0.00;;;;;;;10.98;68.79;99786.81;7355178;19;20015;-61
2023/04/10 07:07:58;;;;;;;0.00;0.00;;;;;;;10.94;69.25;99787.81;7352267;19;20006;-60
2023/04/10 07:10:24;;;;;;;0.05;0.05;;;;;;;10.77;69.53;99767.59;7357540;19;20720;-60
2023/04/10 07:12:49;;;;;;;0.10;0.10;;;;;;;10.84;69.87;99792.53;7352675;19;20014;-60
2023/04/10 07:15:15;;;;;;;0.00;0.00;;;;;;;10.79;69.85;99789.25;7353346;19;20747;-59
2023/04/10 07:17:41;;;;;;;0.00;0.00;;;;;;;10.76;69.72;99794.63;7337160;19;20136;-60
2023/04/10 07:20:07;;;;;;;0.00;0.00;;;;;;;10.71;70.51;99786.09;7356492;19;20030;-59
2023/04/10 07:22:32;;;;;;;0.00;0.00;;;;;;;10.66;70.58;99783.66;7349345;19;20034;-59
2023/04/10 07:24:58;;;;;;;0.00;0.00;;;;;;;10.64;69.41;99781.13;7354724;19;20078;-59
2023/04/10 07:27:23;;;;;;;0.10;0.10;;;;;;;10.61;70.06;99786.44;7354066;19;20025;-59
2023/04/10 07:29:51;;;;;;;0.10;0.10;;;;;;;10.58;70.43;99786.56;7355839;19;20011;-58
2023/04/10 07:32:16;;;;;;;0.00;0.00;;;;;;;10.57;69.41;99800.53;7353906;19;20027;-59
2023/04/10 07:34:42;;;;;;;0.00;0.00;;;;;;;10.53;69.84;99792.84;7356656;19;20128;-59
2023/04/10 07:37:07;;;;;;;0.05;0.05;;;;;;;10.51;69.54;99785.09;7351571;19;20010;-59
2023/04/10 07:39:32;;;;;;;0.00;0.00;;;;;;;10.48;70.63;99790.41;7354064;19;20007;-59
2023/04/10 07:41:58;;;;;;;0.00;0.00;;;;;;;10.43;71.17;99781.91;7354928;19;20017;-59
2023/04/10 07:44:25;;;;;;;0.00;0.00;;;;;;;10.41;70.73;99793.31;7355041;19;20023;-58
2023/04/10 07:46:51;;;;;;;0.00;0.00;;;;;;;10.38;70.38;99778.59;7355674;19;20042;-59
2023/04/10 07:49:16;;;;;;;0.08;0.08;;;;;;;10.35;70.38;99778.75;7354943;19;20010;-59
2023/04/10 07:51:42;;;;;;;0.00;0.00;;;;;;;10.32;71.39;99778.84;7353192;19;20014;-59
2023/04/10 07:54:07;;;;;;;0.00;0.00;;;;;;;10.29;71.17;99776.31;7353045;19;20023;-58
2023/04/10 07:56:32;;;;;;;0.10;0.10;;;;;;;10.27;72.48;99780.75;7355265;19;20006;-60
2023/04/10 07:58:59;;;;;;;0.10;0.10;;;;;;;10.25;71.54;99775.59;7355864;19;20025;-59
2023/04/10 08:01:26;;;;;;;0.10;0.10;;;;;;;10.25;72.33;99779.97;7351413;19;20014;-59
2023/04/10 08:03:51;;;;;;;0.00;0.00;;;;;;;10.19;71.66;99774.91;7351257;19;20019;-59
2023/04/10 08:06:17;;;;;;;0.00;0.00;;;;;;;10.22;72.80;99774.81;7355252;19;20017;-59
2023/04/10 08:08:42;;;;;;;0.00;0.00;;;;;;;10.25;71.66;99782.59;7355479;19;20816;-59
2023/04/10 08:11:27;;;;;;;0.00;0.00;;;;;;;10.29;70.87;99787.66;7351986;19;20013;-59
2023/04/10 08:13:54;;;;;;;0.00;0.00;;;;;;;10.28;72.61;99779.84;7354556;19;20046;-59
2023/04/10 08:16:30;;;;;;;0.10;0.10;;;;;;;10.30;71.65;99778.06;7354345;19;20022;-60
2023/04/10 08:18:57;;;;;;;0.00;0.00;;;;;;;10.19;72.35;99762.75;7353006;19;20018;-59
2023/04/10 08:21:24;;;;;;;0.00;0.00;;;;;;;10.30;72.86;99775.44;7351240;19;20114;-59
2023/04/10 08:23:50;;;;;;;0.00;0.00;;;;;;;10.30;73.18;99776.28;7354097;19;20014;-59
2023/04/10 08:26:16;;;;;;;0.00;0.00;;;;;;;10.29;72.95;99778.94;7353418;19;20703;-58
2023/04/10 08:28:46;;;;;;;0.10;0.10;;;;;;;10.18;72.71;99754.97;7350037;19;20124;-59
2023/04/10 08:31:13;;;;;;;0.00;0.00;;;;;;;10.31;72.77;99771.91;7350574;19;20046;-58
2023/04/10 08:33:38;;;;;;;0.00;0.00;;;;;;;10.29;72.65;99766.78;7353434;19;20026;-59
2023/04/10 08:36:05;;;;;;;0.00;0.00;;;;;;;10.30;72.57;99772.84;7354910;19;20014;-59
2023/04/10 08:38:30;;;;;;;0.10;0.10;;;;;;;10.29;72.80;99773.72;7351845;19;20033;-59
2023/04/10 08:40:57;;;;;;;0.03;0.03;;;;;;;10.18;73.38;99760.19;7354125;19;20621;-59
2023/04/10 08:43:22;;;;;;;0.00;0.00;;;;;;;9.88;72.74;99708.19;7351917;19;20027;-59
2023/04/10 08:45:48;;;;;;;0.00;0.00;;;;;;;10.30;73.05;99780.66;7354326;19;20446;-58
2023/04/10 08:48:17;;;;;;;0.05;0.05;;;;;;;10.19;72.86;99754.06;7351071;19;20808;-59
2023/04/10 08:50:44;;;;;;;0.00;0.00;;;;;;;10.29;72.78;99773.72;7350553;19;20042;-60
2023/04/10 08:53:12;;;;;;;0.00;0.00;;;;;;;10.30;72.49;99765.84;7353349;19;20351;-59
2023/04/10 08:55:39;;;;;;;0.10;0.10;;;;;;;10.19;72.04;99752.31;7348489;19;20023;-59
2023/04/10 08:58:05;;;;;;;0.00;0.00;;;;;;;10.30;71.95;99770.22;7352576;19;20027;-59
2023/04/10 09:00:37;;;;;;;0.00;0.00;;;;;;;10.28;72.69;99761.59;7350188;19;20914;-59
2023/04/10 09:03:10;;;;;;;0.00;0.00;;;;;;;10.26;73.49;99763.41;7350494;19;20030;-59
2023/04/10 09:05:36;;;;;;;0.00;0.00;;;;;;;10.26;73.42;99755.59;7352940;19;20015;-59
2023/04/10 09:08:03;;;;;;;0.00;0.00;;;;;;;10.28;73.11;99758.97;7350594;19;20045;-59
2023/04/10 09:10:28;;;;;;;0.00;0.00;;;;;;;10.30;72.93;99755.41;7350759;19;20105;-59
2023/04/10 09:12:53;;;;;;;0.08;0.08;;;;;;;10.32;73.34;99755.34;7348243;19;20538;-58
2023/04/10 09:15:19;;;;;;;0.00;0.00;;;;;;;10.38;73.76;99750.75;7352559;19;20011;-59
2023/04/10 09:18:02;;;;;;;0.10;0.10;;;;;;;10.54;73.24;99748.44;7330418;19;20869;-59
2023/04/10 09:20:29;;;;;;;0.10;0.10;;;;;;;10.72;74.20;99752.09;7346704;19;20046;-60
2023/04/10 09:22:55;;;;;;;0.00;0.00;;;;;;;10.89;74.41;99728.78;7351732;19;20649;-60
2023/04/10 09:25:38;;;;;;;0.08;0.08;;;;;;;11.34;74.32;99729.59;7351806;19;20015;-60
2023/04/10 09:28:05;;;;;;;0.10;0.10;;;;;;;11.59;74.61;99730.28;7350823;19;20463;-60
2023/04/10 09:30:36;;;;;;;0.00;0.00;;;;;;;11.88;74.23;99730.84;7349907;19;20565;-59
2023/04/10 09:33:01;;;;;;;0.10;0.10;;;;;;;12.07;74.08;99700.31;7356487;19;20027;-60
2023/04/10 09:35:37;;;;;;;0.10;0.10;;;;;;;12.49;73.40;99733.31;7356014;19;20107;-60
2023/04/10 09:38:14;;;;;;;0.08;0.08;;;;;;;12.78;73.41;99723.25;7358160;19;20457;-60
2023/04/10 09:40:40;;;;;;;;;;;;;;;13.10;73.45;99727.78;7358561;19;20351;-60
2023/04/10 09:43:25;;;;;;;0.10;0.10;;;;;;;13.41;72.64;99718.44;7355687;19;19914;-60
2023/04/10 09:45:55;;;;;;;0.10;0.10;;;;;;;13.56;72.32;99720.31;7359042;19;20019;-60
2023/04/10 09:48:23;;;;;;;0.10;0.10;;;;;;;13.76;72.23;99728.00;7342414;19;20015;-60
2023/04/10 09:50:49;;;;;;;0.00;0.00;;;;;;;14.00;72.23;99730.31;7348096;19;20022;-60
2023/04/10 09:53:18;;;;;;;0.10;0.10;;;;;;;14.14;71.83;99708.56;7357410;19;20049;-60
2023/04/10 09:55:45;;;;;;;0.08;0.08;;;;;;;14.48;71.16;99731.25;7356726;19;20018;-59
2023/04/10 09:58:12;;;;;;;0.10;0.10;;;;;;;14.70;71.39;99729.19;7357313;19;20143;-60
2023/04/10 10:00:47;;;;;;;0.00;0.00;;;;;;;14.95;71.11;99717.25;7358227;19;20014;-60
2023/04/10 10:03:19;;;;;;;0.10;0.10;;;;;;;15.15;70.79;99722.25;7356116;19;20006;-60
2023/04/10 10:05:47;;;;;;;0.00;0.00;;;;;;;15.26;70.24;99722.50;7356204;19;20017;-60
2023/04/10 10:08:14;;;;;;;0.00;0.00;;;;;;;15.28;69.78;99723.25;7355751;19;20010;-60
2023/04/10 10:10:56;;;;;;;0.10;0.10;;;;;;;15.34;68.53;99714.16;7354106;19;20007;-60
2023/04/10 10:13:28;;;;;;;0.10;0.10;;;;;;;15.21;68.34;99728.97;7353372;19;20017;-60
2023/04/10 10:16:01;;;;;;;0.10;0.10;;;;;;;15.08;68.45;99726.16;7357941;19;20015;-60
2023/04/10 10:19:15;;;;;;;0.10;0.10;;;;;;;14.91;68.13;99723.66;7354278;19;20014;-60
2023/04/10 10:21:43;;;;;;;0.00;0.00;;;;;;;14.70;68.74;99710.78;7257547;19;2004526;-60
2023/04/10 10:24:11;;;;;;;0.10;0.10;;;;;;;14.59;68.73;99723.63;7357665;19;20043;-60
2023/04/10 10:26:39;;;;;;;;;;;;;;;14.60;68.09;99711.34;7357973;19;20014;-60
2023/04/10 10:29:09;;;;;;;0.00;0.00;;;;;;;14.48;68.33;99718.13;7358396;19;19930;-60
2023/04/10 10:31:36;;;;;;;0.10;0.10;;;;;;;14.39;69.16;99708.09;7356587;19;20034;-60
2023/04/10 10:34:04;;;;;;;0.00;0.00;;;;;;;14.25;69.27;99696.56;7355982;19;20010;-60
2023/04/10 10:36:33;;;;;;;0.00;0.00;;;;;;;14.19;69.48;99696.91;7357368;19;20549;-60
2023/04/10 10:39:17;;;;;;;0.10;0.10;;;;;;;14.20;69.45;99692.50;7348222;19;20467;-60
2023/04/10 10:41:54;;;;;;;0.05;0.05;;;;;;;14.20;70.06;99693.34;7356345;19;20901;-61
2023/04/10 10:44:32;;;;;;;0.10;0.10;;;;;;;14.24;69.35;99689.63;7355199;19;20026;-60
2023/04/10 10:47:14;;;;;;;0.00;0.00;;;;;;;14.25;68.86;99686.06;7353299;19;20553;-60
2023/04/10 10:49:59;;;;;;;0.10;0.10;;;;;;;14.18;68.88;99689.94;7359345;19;20442;-60
2023/04/10 10:52:48;;;;;;;0.10;0.10;;;;;;;14.11;68.61;99688.56;7356541;19;20010;-60
2023/04/10 10:55:35;;;;;;;0.00;0.00;;;;;;;14.03;69.00;99688.13;7358184;19;20014;-60
2023/04/10 10:58:05;;;;;;;0.10;0.10;;;;;;;13.99;68.75;99689.25;7353864;19;20082;-60
2023/04/10 11:00:48;;;;;;;0.10;0.10;;;;;;;13.94;68.36;99696.50;7358828;19;20034;-60
2023/04/10 11:03:14;;;;;;;0.00;0.00;;;;;;;13.81;69.38;99696.28;7355946;19;20066;-60
2023/04/10 11:05:53;;;;;;;0.10;0.10;;;;;;;13.72;69.74;99692.34;7357777;19;20479;-60
2023/04/10 11:08:35;;;;;;;0.00;0.00;;;;;;;13.62;69.19;99685.88;7355481;19;20011;-61
2023/04/10 11:11:04;;;;;;;0.00;0.00;;;;;;;13.61;70.51;99684.19;7351861;19;20019;-61
2023/04/10 11:13:29;;;;;;;0.10;0.10;;;;;;;13.64;70.94;99681.44;7353764;19;20037;-61
2023/04/10 11:15:58;;;;;;;0.08;0.08;;;;;;;13.85;71.48;99687.34;7352965;19;20577;-60
2023/04/10 11:18:46;;;;;;;0.10;0.10;;;;;;;14.15;71.41;99684.00;7355260;19;20581;-61
2023/04/10 11:21:14;;;;;;;0.08;0.08;;;;;;;14.33;70.91;99677.75;7356065;19;20010;-61
2023/04/10 11:23:49;;;;;;;0.00;0.00;;;;;;;14.59;70.14;99668.47;7355572;19;20021;-61
2023/04/10 11:26:39;;;;;;;0.05;0.05;;;;;;;14.82;70.09;99661.09;7356395;19;20749;-61
2023/04/10 11:29:16;;;;;;;0.00;0.00;;;;;;;15.04;70.23;99656.28;7354840;19;20006;-61
2023/04/10 11:31:43;;;;;;;0.00;0.00;;;;;;;15.24;69.76;99634.94;7354372;19;21138;-61
2023/04/10 11:34:12;;;;;;;;;;;;;;;15.77;69.90;99665.13;7352905;19;20014;-61
2023/04/10 11:36:40;;;;;;;0.03;0.03;;;;;;;15.92;69.23;99652.81;7354154;19;20020;-61
2023/04/10 11:39:07;;;;;;;0.03;0.03;;;;;;;16.05;68.31;99643.19;7356189;19;20010;-61